sensor_id;sensor_type;location;lat;lon;timestamp;temperature;humidity
61392;DHT22;47261;52.892;5.738;2023-03-21T00:00:23;9.70;99.90
61392;DHT22;47261;52.892;5.738;2023-03-21T00:02:49;9.70;99.90
61392;DHT22;47261;52.892;5.738;2023-03-21T00:05:15;9.70;99.90
61392;DHT22;47261;52.892;5.738;2023-03-21T00:07:41;9.70;99.90
61392;DHT22;47261;52.892;5.738;2023-03-21T00:10:07;9.70;99.90
61392;DHT22;47261;52.892;5.738;2023-03-21T00:12:32;9.70;99.90
61392;DHT22;47261;52.892;5.738;2023-03-21T00:15:05;9.70;99.90
61392;DHT22;47261;52.892;5.738;2023-03-21T00:17:32;9.80;99.90
61392;DHT22;47261;52.892;5.738;2023-03-21T00:19:59;9.80;99.90
61392;DHT22;47261;52.892;5.738;2023-03-21T00:22:25;9.80;99.90
61392;DHT22;47261;52.892;5.738;2023-03-21T00:24:55;9.80;99.90
61392;DHT22;47261;52.892;5.738;2023-03-21T00:27:20;9.80;99.90
61392;DHT22;47261;52.892;5.738;2023-03-21T00:29:47;9.80;99.90
61392;DHT22;47261;52.892;5.738;2023-03-21T00:32:16;9.80;99.90
61392;DHT22;47261;52.892;5.738;2023-03-21T00:34:42;9.80;99.90
61392;DHT22;47261;52.892;5.738;2023-03-21T00:37:09;9.80;99.90
61392;DHT22;47261;52.892;5.738;2023-03-21T00:39:36;9.90;99.90
61392;DHT22;47261;52.892;5.738;2023-03-21T00:42:02;9.90;99.90
61392;DHT22;47261;52.892;5.738;2023-03-21T00:44:28;9.90;99.90
61392;DHT22;47261;52.892;5.738;2023-03-21T00:46:54;9.90;99.90
61392;DHT22;47261;52.892;5.738;2023-03-21T00:49:19;9.90;99.90
61392;DHT22;47261;52.892;5.738;2023-03-21T00:51:46;9.90;99.90
61392;DHT22;47261;52.892;5.738;2023-03-21T00:54:16;9.90;99.90
61392;DHT22;47261;52.892;5.738;2023-03-21T00:56:41;9.90;99.90
61392;DHT22;47261;52.892;5.738;2023-03-21T00:59:07;9.90;99.90
61392;DHT22;47261;52.892;5.738;2023-03-21T01:01:33;9.90;99.90
61392;DHT22;47261;52.892;5.738;2023-03-21T01:04:00;9.90;99.90
61392;DHT22;47261;52.892;5.738;2023-03-21T01:06:35;9.90;99.90
61392;DHT22;47261;52.892;5.738;2023-03-21T01:09:05;9.90;99.90
61392;DHT22;47261;52.892;5.738;2023-03-21T01:11:30;9.90;99.90
61392;DHT22;47261;52.892;5.738;2023-03-21T01:13:57;9.90;99.90
61392;DHT22;47261;52.892;5.738;2023-03-21T01:16:23;9.90;99.90
61392;DHT22;47261;52.892;5.738;2023-03-21T01:18:49;9.90;99.90
61392;DHT22;47261;52.892;5.738;2023-03-21T01:21:15;9.90;99.90
61392;DHT22;47261;52.892;5.738;2023-03-21T01:23:42;9.90;99.90
61392;DHT22;47261;52.892;5.738;2023-03-21T01:26:10;9.90;99.90
61392;DHT22;47261;52.892;5.738;2023-03-21T01:28:37;9.90;99.90
61392;DHT22;47261;52.892;5.738;2023-03-21T01:31:03;9.90;99.90
61392;DHT22;47261;52.892;5.738;2023-03-21T01:33:30;9.90;99.90
61392;DHT22;47261;52.892;5.738;2023-03-21T01:35:56;9.90;99.90
61392;DHT22;47261;52.892;5.738;2023-03-21T01:38:22;9.90;99.90
61392;DHT22;47261;52.892;5.738;2023-03-21T01:40:49;10.00;99.90
61392;DHT22;47261;52.892;5.738;2023-03-21T01:43:33;10.00;99.90
61392;DHT22;47261;52.892;5.738;2023-03-21T01:48:33;10.00;99.90
61392;DHT22;47261;52.892;5.738;2023-03-21T01:51:01;10.00;99.90
61392;DHT22;47261;52.892;5.738;2023-03-21T01:53:30;10.00;99.90
61392;DHT22;47261;52.892;5.738;2023-03-21T01:56:05;10.00;99.90
61392;DHT22;47261;52.892;5.738;2023-03-21T01:58:32;10.10;99.90
61392;DHT22;47261;52.892;5.738;2023-03-21T02:00:58;10.10;99.90
61392;DHT22;47261;52.892;5.738;2023-03-21T02:03:25;10.10;99.90
61392;DHT22;47261;52.892;5.738;2023-03-21T02:05:58;10.10;99.90
61392;DHT22;47261;52.892;5.738;2023-03-21T02:08:28;10.10;99.90
61392;DHT22;47261;52.892;5.738;2023-03-21T02:10:54;10.10;99.90
61392;DHT22;47261;52.892;5.738;2023-03-21T02:13:22;10.10;99.90
61392;DHT22;47261;52.892;5.738;2023-03-21T02:16:19;10.10;99.90
61392;DHT22;47261;52.892;5.738;2023-03-21T02:18:49;10.10;99.90
61392;DHT22;47261;52.892;5.738;2023-03-21T02:32:47;10.20;99.90
61392;DHT22;47261;52.892;5.738;2023-03-21T02:37:56;10.10;99.90
61392;DHT22;47261;52.892;5.738;2023-03-21T02:40:38;10.10;99.90
61392;DHT22;47261;52.892;5.738;2023-03-21T02:43:38;10.10;99.90
61392;DHT22;47261;52.892;5.738;2023-03-21T02:46:21;10.10;99.90
61392;DHT22;47261;52.892;5.738;2023-03-21T02:51:33;10.10;99.90
61392;DHT22;47261;52.892;5.738;2023-03-21T02:54:12;10.10;99.90
61392;DHT22;47261;52.892;5.738;2023-03-21T02:56:39;10.10;99.90
61392;DHT22;47261;52.892;5.738;2023-03-21T02:59:06;10.10;99.90
61392;DHT22;47261;52.892;5.738;2023-03-21T03:01:32;10.00;99.90
61392;DHT22;47261;52.892;5.738;2023-03-21T03:03:58;10.00;99.90
61392;DHT22;47261;52.892;5.738;2023-03-21T03:06:33;10.00;99.90
61392;DHT22;47261;52.892;5.738;2023-03-21T03:11:59;10.00;99.90
61392;DHT22;47261;52.892;5.738;2023-03-21T03:28:26;10.10;99.90
61392;DHT22;47261;52.892;5.738;2023-03-21T03:30:55;10.10;99.90
61392;DHT22;47261;52.892;5.738;2023-03-21T03:33:24;10.10;99.90
61392;DHT22;47261;52.892;5.738;2023-03-21T03:35:51;10.10;99.90
61392;DHT22;47261;52.892;5.738;2023-03-21T03:38:20;10.10;99.90
61392;DHT22;47261;52.892;5.738;2023-03-21T03:41:18;10.10;99.90
61392;DHT22;47261;52.892;5.738;2023-03-21T03:43:48;10.10;99.90
61392;DHT22;47261;52.892;5.738;2023-03-21T03:46:29;10.10;99.90
61392;DHT22;47261;52.892;5.738;2023-03-21T03:49:21;10.10;99.90
61392;DHT22;47261;52.892;5.738;2023-03-21T03:52:19;10.20;99.90
61392;DHT22;47261;52.892;5.738;2023-03-21T03:54:48;10.10;99.90
61392;DHT22;47261;52.892;5.738;2023-03-21T03:57:14;10.10;99.90
61392;DHT22;47261;52.892;5.738;2023-03-21T03:59:43;10.10;99.90
61392;DHT22;47261;52.892;5.738;2023-03-21T04:02:08;10.20;99.90
61392;DHT22;47261;52.892;5.738;2023-03-21T04:04:35;10.20;99.90
61392;DHT22;47261;52.892;5.738;2023-03-21T04:07:01;10.20;99.90
61392;DHT22;47261;52.892;5.738;2023-03-21T04:09:28;10.20;99.90
61392;DHT22;47261;52.892;5.738;2023-03-21T04:11:55;10.20;99.90
61392;DHT22;47261;52.892;5.738;2023-03-21T04:14:21;10.20;99.90
61392;DHT22;47261;52.892;5.738;2023-03-21T04:16:47;10.20;99.90
61392;DHT22;47261;52.892;5.738;2023-03-21T04:19:14;10.20;99.90
61392;DHT22;47261;52.892;5.738;2023-03-21T04:21:40;10.20;99.90
61392;DHT22;47261;52.892;5.738;2023-03-21T04:24:06;10.20;99.90
61392;DHT22;47261;52.892;5.738;2023-03-21T04:26:32;10.20;99.90
61392;DHT22;47261;52.892;5.738;2023-03-21T04:29:00;10.20;99.90
61392;DHT22;47261;52.892;5.738;2023-03-21T04:31:27;10.20;99.90
61392;DHT22;47261;52.892;5.738;2023-03-21T04:33:53;10.20;99.90
61392;DHT22;47261;52.892;5.738;2023-03-21T04:36:20;10.20;99.90
61392;DHT22;47261;52.892;5.738;2023-03-21T04:38:52;10.30;99.90
61392;DHT22;47261;52.892;5.738;2023-03-21T04:41:18;10.20;99.90
61392;DHT22;47261;52.892;5.738;2023-03-21T04:43:44;10.20;99.90
61392;DHT22;47261;52.892;5.738;2023-03-21T04:46:10;10.20;99.90
61392;DHT22;47261;52.892;5.738;2023-03-21T04:48:36;10.20;99.90
61392;DHT22;47261;52.892;5.738;2023-03-21T04:51:02;10.20;99.90
61392;DHT22;47261;52.892;5.738;2023-03-21T04:53:27;10.20;99.90
61392;DHT22;47261;52.892;5.738;2023-03-21T04:55:53;10.20;99.90
61392;DHT22;47261;52.892;5.738;2023-03-21T04:58:19;10.20;99.90
61392;DHT22;47261;52.892;5.738;2023-03-21T05:00:45;10.20;99.90
61392;DHT22;47261;52.892;5.738;2023-03-21T05:03:11;10.20;99.90
61392;DHT22;47261;52.892;5.738;2023-03-21T05:05:44;10.20;99.90
61392;DHT22;47261;52.892;5.738;2023-03-21T05:08:11;10.20;99.90
61392;DHT22;47261;52.892;5.738;2023-03-21T05:10:37;10.20;99.90
61392;DHT22;47261;52.892;5.738;2023-03-21T05:13:03;10.20;99.90
61392;DHT22;47261;52.892;5.738;2023-03-21T05:15:28;10.20;99.90
61392;DHT22;47261;52.892;5.738;2023-03-21T05:17:54;10.20;99.90
61392;DHT22;47261;52.892;5.738;2023-03-21T05:20:23;10.20;99.90
61392;DHT22;47261;52.892;5.738;2023-03-21T05:22:49;10.20;99.90
61392;DHT22;47261;52.892;5.738;2023-03-21T05:25:16;10.20;99.90
61392;DHT22;47261;52.892;5.738;2023-03-21T05:27:43;10.30;99.90
61392;DHT22;47261;52.892;5.738;2023-03-21T05:30:19;10.20;99.90
61392;DHT22;47261;52.892;5.738;2023-03-21T05:32:45;10.20;99.90
61392;DHT22;47261;52.892;5.738;2023-03-21T05:35:11;10.20;99.90
61392;DHT22;47261;52.892;5.738;2023-03-21T05:37:37;10.20;99.90
61392;DHT22;47261;52.892;5.738;2023-03-21T05:40:04;10.30;99.90
61392;DHT22;47261;52.892;5.738;2023-03-21T05:42:31;10.30;99.90
61392;DHT22;47261;52.892;5.738;2023-03-21T05:44:56;10.20;99.90
61392;DHT22;47261;52.892;5.738;2023-03-21T05:47:22;10.20;99.90
61392;DHT22;47261;52.892;5.738;2023-03-21T05:49:48;10.20;99.90
61392;DHT22;47261;52.892;5.738;2023-03-21T05:52:14;10.20;99.90
61392;DHT22;47261;52.892;5.738;2023-03-21T05:54:40;10.20;99.90
61392;DHT22;47261;52.892;5.738;2023-03-21T05:57:06;10.20;99.90
61392;DHT22;47261;52.892;5.738;2023-03-21T05:59:32;10.20;99.90
61392;DHT22;47261;52.892;5.738;2023-03-21T06:01:58;10.20;99.90
61392;DHT22;47261;52.892;5.738;2023-03-21T06:04:23;10.20;99.90
61392;DHT22;47261;52.892;5.738;2023-03-21T06:06:50;10.20;99.90
61392;DHT22;47261;52.892;5.738;2023-03-21T06:09:18;10.20;99.90
61392;DHT22;47261;52.892;5.738;2023-03-21T06:11:50;10.20;99.90
61392;DHT22;47261;52.892;5.738;2023-03-21T06:14:17;10.10;99.90
61392;DHT22;47261;52.892;5.738;2023-03-21T06:16:43;10.20;99.90
61392;DHT22;47261;52.892;5.738;2023-03-21T06:19:08;10.20;99.90
61392;DHT22;47261;52.892;5.738;2023-03-21T06:21:34;10.10;99.90
61392;DHT22;47261;52.892;5.738;2023-03-21T06:24:00;10.10;99.90
61392;DHT22;47261;52.892;5.738;2023-03-21T06:26:26;10.10;99.90
61392;DHT22;47261;52.892;5.738;2023-03-21T06:28:52;10.10;99.90
61392;DHT22;47261;52.892;5.738;2023-03-21T06:31:18;10.10;99.90
61392;DHT22;47261;52.892;5.738;2023-03-21T06:33:48;10.10;99.90
61392;DHT22;47261;52.892;5.738;2023-03-21T06:36:14;10.10;99.90
61392;DHT22;47261;52.892;5.738;2023-03-21T06:38:40;10.10;99.90
61392;DHT22;47261;52.892;5.738;2023-03-21T06:41:06;10.10;99.90
61392;DHT22;47261;52.892;5.738;2023-03-21T06:43:32;10.10;99.90
61392;DHT22;47261;52.892;5.738;2023-03-21T06:45:59;10.10;99.90
61392;DHT22;47261;52.892;5.738;2023-03-21T06:48:26;10.10;99.90
61392;DHT22;47261;52.892;5.738;2023-03-21T06:50:52;10.10;99.90
61392;DHT22;47261;52.892;5.738;2023-03-21T06:53:20;10.10;99.90
61392;DHT22;47261;52.892;5.738;2023-03-21T06:55:51;10.10;99.90
61392;DHT22;47261;52.892;5.738;2023-03-21T06:58:17;10.10;99.90
61392;DHT22;47261;52.892;5.738;2023-03-21T07:00:43;10.10;99.90
61392;DHT22;47261;52.892;5.738;2023-03-21T07:03:10;10.10;99.90
61392;DHT22;47261;52.892;5.738;2023-03-21T07:05:36;10.10;99.90
61392;DHT22;47261;52.892;5.738;2023-03-21T07:08:02;10.10;99.90
61392;DHT22;47261;52.892;5.738;2023-03-21T07:10:28;10.10;99.90
61392;DHT22;47261;52.892;5.738;2023-03-21T07:12:54;10.20;99.90
61392;DHT22;47261;52.892;5.738;2023-03-21T07:15:20;10.20;99.90
61392;DHT22;47261;52.892;5.738;2023-03-21T07:17:46;10.20;99.90
61392;DHT22;47261;52.892;5.738;2023-03-21T07:20:12;10.20;99.90
61392;DHT22;47261;52.892;5.738;2023-03-21T07:22:38;10.20;99.90
61392;DHT22;47261;52.892;5.738;2023-03-21T07:25:04;10.20;99.90
61392;DHT22;47261;52.892;5.738;2023-03-21T07:27:32;10.30;99.90
61392;DHT22;47261;52.892;5.738;2023-03-21T07:29:58;10.30;99.90
61392;DHT22;47261;52.892;5.738;2023-03-21T07:32:23;10.30;99.90
61392;DHT22;47261;52.892;5.738;2023-03-21T07:34:54;10.30;99.90
61392;DHT22;47261;52.892;5.738;2023-03-21T07:37:20;10.30;99.90
61392;DHT22;47261;52.892;5.738;2023-03-21T07:39:46;10.30;99.90
61392;DHT22;47261;52.892;5.738;2023-03-21T07:42:11;10.30;99.90
61392;DHT22;47261;52.892;5.738;2023-03-21T07:44:37;10.30;99.90
61392;DHT22;47261;52.892;5.738;2023-03-21T07:47:04;10.30;99.90
61392;DHT22;47261;52.892;5.738;2023-03-21T07:49:30;10.40;99.90
61392;DHT22;47261;52.892;5.738;2023-03-21T07:51:56;10.40;99.90
61392;DHT22;47261;52.892;5.738;2023-03-21T07:54:21;10.40;99.90
61392;DHT22;47261;52.892;5.738;2023-03-21T07:56:48;10.40;99.90
61392;DHT22;47261;52.892;5.738;2023-03-21T07:59:13;10.50;99.90
61392;DHT22;47261;52.892;5.738;2023-03-21T08:01:39;10.50;99.90
61392;DHT22;47261;52.892;5.738;2023-03-21T08:04:05;10.50;99.90
61392;DHT22;47261;52.892;5.738;2023-03-21T08:06:31;10.50;99.90
61392;DHT22;47261;52.892;5.738;2023-03-21T08:08:57;10.60;99.90
61392;DHT22;47261;52.892;5.738;2023-03-21T08:11:23;10.60;99.90
61392;DHT22;47261;52.892;5.738;2023-03-21T08:13:49;10.60;99.90
61392;DHT22;47261;52.892;5.738;2023-03-21T08:16:16;10.60;99.90
61392;DHT22;47261;52.892;5.738;2023-03-21T08:18:42;10.60;99.90
61392;DHT22;47261;52.892;5.738;2023-03-21T08:21:07;10.60;99.90
61392;DHT22;47261;52.892;5.738;2023-03-21T08:23:33;10.60;99.90
61392;DHT22;47261;52.892;5.738;2023-03-21T08:26:00;10.60;99.90
61392;DHT22;47261;52.892;5.738;2023-03-21T08:28:26;10.60;99.90
61392;DHT22;47261;52.892;5.738;2023-03-21T08:30:52;10.60;99.90
61392;DHT22;47261;52.892;5.738;2023-03-21T08:33:19;10.60;99.90
61392;DHT22;47261;52.892;5.738;2023-03-21T08:35:44;10.60;99.90
61392;DHT22;47261;52.892;5.738;2023-03-21T08:38:10;10.70;99.90
61392;DHT22;47261;52.892;5.738;2023-03-21T08:40:37;10.70;99.90
61392;DHT22;47261;52.892;5.738;2023-03-21T08:43:02;10.70;99.90
61392;DHT22;47261;52.892;5.738;2023-03-21T08:45:28;10.70;99.90
61392;DHT22;47261;52.892;5.738;2023-03-21T08:47:54;10.70;99.90
61392;DHT22;47261;52.892;5.738;2023-03-21T08:50:23;10.80;99.90
61392;DHT22;47261;52.892;5.738;2023-03-21T08:52:52;10.80;99.90
61392;DHT22;47261;52.892;5.738;2023-03-21T08:55:18;10.90;99.90
61392;DHT22;47261;52.892;5.738;2023-03-21T08:57:44;10.90;99.90
61392;DHT22;47261;52.892;5.738;2023-03-21T09:00:13;10.90;99.90
61392;DHT22;47261;52.892;5.738;2023-03-21T09:02:43;10.90;99.90
61392;DHT22;47261;52.892;5.738;2023-03-21T09:05:09;11.00;99.90
61392;DHT22;47261;52.892;5.738;2023-03-21T09:07:37;10.90;99.90
61392;DHT22;47261;52.892;5.738;2023-03-21T09:10:04;10.90;99.90
61392;DHT22;47261;52.892;5.738;2023-03-21T09:12:32;10.90;99.90
61392;DHT22;47261;52.892;5.738;2023-03-21T09:14:58;10.90;99.90
61392;DHT22;47261;52.892;5.738;2023-03-21T09:17:23;10.90;99.90
61392;DHT22;47261;52.892;5.738;2023-03-21T09:19:49;10.90;99.90
61392;DHT22;47261;52.892;5.738;2023-03-21T09:22:15;10.90;99.90
61392;DHT22;47261;52.892;5.738;2023-03-21T09:24:46;10.90;99.90
61392;DHT22;47261;52.892;5.738;2023-03-21T09:27:14;10.90;99.90
61392;DHT22;47261;52.892;5.738;2023-03-21T09:29:41;11.00;99.90
61392;DHT22;47261;52.892;5.738;2023-03-21T09:32:09;11.00;99.90
61392;DHT22;47261;52.892;5.738;2023-03-21T09:34:37;11.10;99.90
61392;DHT22;47261;52.892;5.738;2023-03-21T09:37:06;11.10;99.90
61392;DHT22;47261;52.892;5.738;2023-03-21T09:39:36;11.20;99.90
61392;DHT22;47261;52.892;5.738;2023-03-21T09:42:19;11.20;99.90
61392;DHT22;47261;52.892;5.738;2023-03-21T09:47:36;11.20;99.90
61392;DHT22;47261;52.892;5.738;2023-03-21T09:55:32;11.30;99.90
61392;DHT22;47261;52.892;5.738;2023-03-21T09:58:35;11.30;99.90
61392;DHT22;47261;52.892;5.738;2023-03-21T10:01:25;11.40;99.90
61392;DHT22;47261;52.892;5.738;2023-03-21T10:03:55;11.40;99.90
61392;DHT22;47261;52.892;5.738;2023-03-21T10:06:25;11.50;99.90
61392;DHT22;47261;52.892;5.738;2023-03-21T10:09:01;11.60;99.90
61392;DHT22;47261;52.892;5.738;2023-03-21T10:11:48;11.70;99.90
61392;DHT22;47261;52.892;5.738;2023-03-21T10:14:30;11.80;99.90
61392;DHT22;47261;52.892;5.738;2023-03-21T10:19:45;11.90;99.90
61392;DHT22;47261;52.892;5.738;2023-03-21T10:22:11;12.00;99.90
61392;DHT22;47261;52.892;5.738;2023-03-21T10:24:37;12.10;99.90
61392;DHT22;47261;52.892;5.738;2023-03-21T10:27:03;12.10;99.90
61392;DHT22;47261;52.892;5.738;2023-03-21T10:29:35;12.10;99.90
61392;DHT22;47261;52.892;5.738;2023-03-21T10:32:02;12.20;99.90
61392;DHT22;47261;52.892;5.738;2023-03-21T10:34:38;12.20;99.90
61392;DHT22;47261;52.892;5.738;2023-03-21T10:37:06;12.20;99.90
61392;DHT22;47261;52.892;5.738;2023-03-21T10:39:38;12.20;99.90
61392;DHT22;47261;52.892;5.738;2023-03-21T10:42:05;12.30;99.90
61392;DHT22;47261;52.892;5.738;2023-03-21T10:44:34;12.30;99.90
61392;DHT22;47261;52.892;5.738;2023-03-21T10:47:06;12.40;99.90
61392;DHT22;47261;52.892;5.738;2023-03-21T10:49:33;12.50;99.90
61392;DHT22;47261;52.892;5.738;2023-03-21T10:52:06;12.50;99.90
61392;DHT22;47261;52.892;5.738;2023-03-21T10:54:33;12.60;99.90
61392;DHT22;47261;52.892;5.738;2023-03-21T10:57:05;12.60;99.90
61392;DHT22;47261;52.892;5.738;2023-03-21T10:59:53;12.60;99.90
61392;DHT22;47261;52.892;5.738;2023-03-21T11:02:35;12.70;99.90
61392;DHT22;47261;52.892;5.738;2023-03-21T11:05:04;12.80;99.90
61392;DHT22;47261;52.892;5.738;2023-03-21T11:07:31;12.90;99.90
61392;DHT22;47261;52.892;5.738;2023-03-21T11:09:59;12.90;99.90
61392;DHT22;47261;52.892;5.738;2023-03-21T11:12:36;13.00;99.90
61392;DHT22;47261;52.892;5.738;2023-03-21T11:15:41;13.00;99.90
61392;DHT22;47261;52.892;5.738;2023-03-21T11:18:18;13.10;99.90
61392;DHT22;47261;52.892;5.738;2023-03-21T11:20:53;13.10;99.90
61392;DHT22;47261;52.892;5.738;2023-03-21T11:23:23;13.00;99.90
61392;DHT22;47261;52.892;5.738;2023-03-21T11:25:50;13.00;99.90
61392;DHT22;47261;52.892;5.738;2023-03-21T11:28:20;13.00;99.90
61392;DHT22;47261;52.892;5.738;2023-03-21T11:30:55;13.00;99.90
61392;DHT22;47261;52.892;5.738;2023-03-21T11:33:25;13.00;99.90
61392;DHT22;47261;52.892;5.738;2023-03-21T11:36:02;13.00;99.90
61392;DHT22;47261;52.892;5.738;2023-03-21T11:38:33;13.10;99.90
61392;DHT22;47261;52.892;5.738;2023-03-21T11:41:01;13.10;99.70
61392;DHT22;47261;52.892;5.738;2023-03-21T11:43:35;13.10;99.50
61392;DHT22;47261;52.892;5.738;2023-03-21T11:46:12;13.10;99.40
61392;DHT22;47261;52.892;5.738;2023-03-21T11:48:40;13.10;99.30
61392;DHT22;47261;52.892;5.738;2023-03-21T11:51:16;13.10;98.80
61392;DHT22;47261;52.892;5.738;2023-03-21T11:53:45;13.00;98.90
61392;DHT22;47261;52.892;5.738;2023-03-21T12:01:41;12.80;99.70
61392;DHT22;47261;52.892;5.738;2023-03-21T12:06:59;12.80;99.90
61392;DHT22;47261;52.892;5.738;2023-03-21T12:09:33;12.70;99.90
61392;DHT22;47261;52.892;5.738;2023-03-21T12:12:32;12.80;99.90
61392;DHT22;47261;52.892;5.738;2023-03-21T12:20:58;12.90;99.80
61392;DHT22;47261;52.892;5.738;2023-03-21T12:23:29;12.90;99.80
61392;DHT22;47261;52.892;5.738;2023-03-21T12:39:54;13.20;99.40
61392;DHT22;47261;52.892;5.738;2023-03-21T12:45:08;13.50;98.80
61392;DHT22;47261;52.892;5.738;2023-03-21T12:47:40;13.60;97.90
61392;DHT22;47261;52.892;5.738;2023-03-21T12:50:26;13.60;98.40
61392;DHT22;47261;52.892;5.738;2023-03-21T12:53:00;13.70;98.20
61392;DHT22;47261;52.892;5.738;2023-03-21T12:55:33;13.80;97.70
61392;DHT22;47261;52.892;5.738;2023-03-21T12:58:06;13.80;97.70
61392;DHT22;47261;52.892;5.738;2023-03-21T13:03:23;13.80;97.00
61392;DHT22;47261;52.892;5.738;2023-03-21T13:06:00;13.80;97.60
61392;DHT22;47261;52.892;5.738;2023-03-21T13:08:38;13.80;97.60
61392;DHT22;47261;52.892;5.738;2023-03-21T13:11:06;13.80;97.30
61392;DHT22;47261;52.892;5.738;2023-03-21T13:14:04;13.90;97.00
61392;DHT22;47261;52.892;5.738;2023-03-21T13:16:52;13.90;96.70
61392;DHT22;47261;52.892;5.738;2023-03-21T13:22:37;14.00;96.40
61392;DHT22;47261;52.892;5.738;2023-03-21T13:25:19;14.00;95.20
61392;DHT22;47261;52.892;5.738;2023-03-21T13:28:00;13.90;95.30
61392;DHT22;47261;52.892;5.738;2023-03-21T13:30:28;13.90;95.30
61392;DHT22;47261;52.892;5.738;2023-03-21T13:33:15;13.80;95.30
61392;DHT22;47261;52.892;5.738;2023-03-21T13:35:44;13.80;95.70
61392;DHT22;47261;52.892;5.738;2023-03-21T13:38:29;13.70;95.80
61392;DHT22;47261;52.892;5.738;2023-03-21T13:40:57;13.90;96.40
61392;DHT22;47261;52.892;5.738;2023-03-21T13:44:04;14.00;96.20
61392;DHT22;47261;52.892;5.738;2023-03-21T13:49:01;14.20;95.10
61392;DHT22;47261;52.892;5.738;2023-03-21T13:51:51;14.20;94.90
61392;DHT22;47261;52.892;5.738;2023-03-21T13:54:21;14.30;95.10
61392;DHT22;47261;52.892;5.738;2023-03-21T13:56:54;14.30;94.90
61392;DHT22;47261;52.892;5.738;2023-03-21T13:59:38;14.30;94.30
61392;DHT22;47261;52.892;5.738;2023-03-21T14:04:37;14.10;94.40
61392;DHT22;47261;52.892;5.738;2023-03-21T14:07:19;14.10;94.90
61392;DHT22;47261;52.892;5.738;2023-03-21T14:10:00;14.10;94.80
61392;DHT22;47261;52.892;5.738;2023-03-21T14:12:29;14.10;95.50
61392;DHT22;47261;52.892;5.738;2023-03-21T14:15:02;14.00;95.20
61392;DHT22;47261;52.892;5.738;2023-03-21T14:17:32;13.90;95.80
61392;DHT22;47261;52.892;5.738;2023-03-21T14:20:12;13.90;95.60
61392;DHT22;47261;52.892;5.738;2023-03-21T14:22:39;13.80;95.30
61392;DHT22;47261;52.892;5.738;2023-03-21T14:25:10;13.70;95.60
61392;DHT22;47261;52.892;5.738;2023-03-21T14:27:37;13.60;95.50
61392;DHT22;47261;52.892;5.738;2023-03-21T14:30:09;13.60;95.90
61392;DHT22;47261;52.892;5.738;2023-03-21T14:32:36;13.50;96.20
61392;DHT22;47261;52.892;5.738;2023-03-21T14:35:02;13.50;96.00
61392;DHT22;47261;52.892;5.738;2023-03-21T14:37:32;13.40;96.10
61392;DHT22;47261;52.892;5.738;2023-03-21T14:40:00;13.30;95.70
61392;DHT22;47261;52.892;5.738;2023-03-21T14:42:27;13.30;95.60
61392;DHT22;47261;52.892;5.738;2023-03-21T14:44:53;13.20;96.10
61392;DHT22;47261;52.892;5.738;2023-03-21T14:47:30;13.20;96.00
61392;DHT22;47261;52.892;5.738;2023-03-21T14:50:01;13.10;96.50
61392;DHT22;47261;52.892;5.738;2023-03-21T14:52:31;13.10;96.80
61392;DHT22;47261;52.892;5.738;2023-03-21T14:55:00;13.00;97.20
61392;DHT22;47261;52.892;5.738;2023-03-21T14:57:31;12.90;97.70
61392;DHT22;47261;52.892;5.738;2023-03-21T15:00:00;12.90;98.00
61392;DHT22;47261;52.892;5.738;2023-03-21T15:02:47;12.80;98.40
61392;DHT22;47261;52.892;5.738;2023-03-21T15:05:31;12.80;98.50
61392;DHT22;47261;52.892;5.738;2023-03-21T15:10:36;12.80;98.50
61392;DHT22;47261;52.892;5.738;2023-03-21T15:13:14;12.80;98.30
61392;DHT22;47261;52.892;5.738;2023-03-21T15:15:40;12.70;98.40
61392;DHT22;47261;52.892;5.738;2023-03-21T15:18:07;12.70;98.60
61392;DHT22;47261;52.892;5.738;2023-03-21T15:20:36;12.60;98.40
61392;DHT22;47261;52.892;5.738;2023-03-21T15:23:11;12.60;98.50
61392;DHT22;47261;52.892;5.738;2023-03-21T15:25:39;12.50;98.70
61392;DHT22;47261;52.892;5.738;2023-03-21T15:28:05;12.50;98.70
61392;DHT22;47261;52.892;5.738;2023-03-21T15:30:31;12.50;99.00
61392;DHT22;47261;52.892;5.738;2023-03-21T15:33:05;12.50;98.90
61392;DHT22;47261;52.892;5.738;2023-03-21T15:35:37;12.50;99.20
61392;DHT22;47261;52.892;5.738;2023-03-21T15:38:03;12.50;99.50
61392;DHT22;47261;52.892;5.738;2023-03-21T15:40:31;12.40;99.80
61392;DHT22;47261;52.892;5.738;2023-03-21T15:43:17;12.30;99.90
61392;DHT22;47261;52.892;5.738;2023-03-21T15:45:49;12.30;99.90
61392;DHT22;47261;52.892;5.738;2023-03-21T15:48:15;12.20;99.90
61392;DHT22;47261;52.892;5.738;2023-03-21T15:50:49;12.10;99.90
61392;DHT22;47261;52.892;5.738;2023-03-21T15:53:18;12.00;99.90
61392;DHT22;47261;52.892;5.738;2023-03-21T15:55:49;11.90;99.90
61392;DHT22;47261;52.892;5.738;2023-03-21T15:58:24;11.80;99.90
61392;DHT22;47261;52.892;5.738;2023-03-21T16:00:55;11.60;99.90
61392;DHT22;47261;52.892;5.738;2023-03-21T16:08:50;11.40;99.90
61392;DHT22;47261;52.892;5.738;2023-03-21T16:11:23;11.40;99.90
61392;DHT22;47261;52.892;5.738;2023-03-21T16:13:51;11.40;99.90
61392;DHT22;47261;52.892;5.738;2023-03-21T16:16:20;11.40;99.90
61392;DHT22;47261;52.892;5.738;2023-03-21T16:18:46;11.30;99.90
61392;DHT22;47261;52.892;5.738;2023-03-21T16:21:14;11.20;99.90
61392;DHT22;47261;52.892;5.738;2023-03-21T16:23:40;11.20;99.90
61392;DHT22;47261;52.892;5.738;2023-03-21T16:26:13;11.10;99.90
61392;DHT22;47261;52.892;5.738;2023-03-21T16:28:38;11.10;99.90
61392;DHT22;47261;52.892;5.738;2023-03-21T16:31:04;11.00;99.90
61392;DHT22;47261;52.892;5.738;2023-03-21T16:33:30;11.00;99.90
61392;DHT22;47261;52.892;5.738;2023-03-21T16:35:56;11.00;99.90
61392;DHT22;47261;52.892;5.738;2023-03-21T16:38:22;10.90;99.90
61392;DHT22;47261;52.892;5.738;2023-03-21T16:40:48;10.90;99.90
61392;DHT22;47261;52.892;5.738;2023-03-21T16:43:15;10.90;99.90
61392;DHT22;47261;52.892;5.738;2023-03-21T16:45:41;10.80;99.90
61392;DHT22;47261;52.892;5.738;2023-03-21T16:48:07;10.80;99.90
61392;DHT22;47261;52.892;5.738;2023-03-21T16:50:40;10.80;99.90
61392;DHT22;47261;52.892;5.738;2023-03-21T16:53:06;10.80;99.90
61392;DHT22;47261;52.892;5.738;2023-03-21T16:55:32;10.80;99.90
61392;DHT22;47261;52.892;5.738;2023-03-21T16:57:59;10.80;99.90
61392;DHT22;47261;52.892;5.738;2023-03-21T17:00:26;10.80;99.90
61392;DHT22;47261;52.892;5.738;2023-03-21T17:02:54;10.90;99.90
61392;DHT22;47261;52.892;5.738;2023-03-21T17:05:25;10.90;99.90
61392;DHT22;47261;52.892;5.738;2023-03-21T17:07:54;10.90;99.90
61392;DHT22;47261;52.892;5.738;2023-03-21T17:10:25;11.00;99.90
61392;DHT22;47261;52.892;5.738;2023-03-21T17:12:51;11.00;99.90
61392;DHT22;47261;52.892;5.738;2023-03-21T17:15:17;11.10;99.90
61392;DHT22;47261;52.892;5.738;2023-03-21T17:17:44;11.10;99.90
61392;DHT22;47261;52.892;5.738;2023-03-21T17:20:18;11.10;99.90
61392;DHT22;47261;52.892;5.738;2023-03-21T17:22:45;11.20;99.90
61392;DHT22;47261;52.892;5.738;2023-03-21T17:25:10;11.20;99.90